sensor_id;sensor_type;location;lat;lon;timestamp;P1;durP1;ratioP1;P2;durP2;ratioP2
1475;SDS011;730;48.870;12.542;2022-11-30T00:00:55;20.67;;;13.68;;
1475;SDS011;730;48.870;12.542;2022-11-30T00:03:21;18.42;;;13.90;;
1475;SDS011;730;48.870;12.542;2022-11-30T00:05:48;16.05;;;13.00;;
1475;SDS011;730;48.870;12.542;2022-11-30T00:08:14;14.18;;;11.77;;
1475;SDS011;730;48.870;12.542;2022-11-30T00:10:40;18.13;;;14.35;;
1475;SDS011;730;48.870;12.542;2022-11-30T00:13:07;19.67;;;14.32;;
1475;SDS011;730;48.870;12.542;2022-11-30T00:15:34;18.77;;;13.48;;
1475;SDS011;730;48.870;12.542;2022-11-30T00:18:01;17.15;;;13.07;;
1475;SDS011;730;48.870;12.542;2022-11-30T00:20:27;17.88;;;14.00;;
1475;SDS011;730;48.870;12.542;2022-11-30T00:22:55;21.15;;;14.25;;
1475;SDS011;730;48.870;12.542;2022-11-30T00:25:22;22.15;;;15.25;;
1475;SDS011;730;48.870;12.542;2022-11-30T00:27:48;23.02;;;14.32;;
1475;SDS011;730;48.870;12.542;2022-11-30T00:30:15;18.83;;;13.38;;
1475;SDS011;730;48.870;12.542;2022-11-30T00:32:41;20.25;;;14.68;;
1475;SDS011;730;48.870;12.542;2022-11-30T00:35:07;17.58;;;12.55;;
1475;SDS011;730;48.870;12.542;2022-11-30T00:37:33;16.65;;;13.27;;
1475;SDS011;730;48.870;12.542;2022-11-30T00:40:00;22.67;;;13.82;;
1475;SDS011;730;48.870;12.542;2022-11-30T00:42:26;20.35;;;13.60;;
1475;SDS011;730;48.870;12.542;2022-11-30T00:44:52;19.88;;;15.05;;
1475;SDS011;730;48.870;12.542;2022-11-30T00:47:18;21.70;;;14.52;;
1475;SDS011;730;48.870;12.542;2022-11-30T00:49:44;22.33;;;15.40;;
1475;SDS011;730;48.870;12.542;2022-11-30T00:52:10;21.23;;;14.65;;
1475;SDS011;730;48.870;12.542;2022-11-30T00:54:37;21.92;;;15.05;;
1475;SDS011;730;48.870;12.542;2022-11-30T00:57:03;20.23;;;14.55;;
1475;SDS011;730;48.870;12.542;2022-11-30T00:59:29;24.83;;;15.85;;
1475;SDS011;730;48.870;12.542;2022-11-30T01:01:55;23.30;;;14.15;;
1475;SDS011;730;48.870;12.542;2022-11-30T01:04:21;20.52;;;13.80;;
1475;SDS011;730;48.870;12.542;2022-11-30T01:06:47;15.70;;;12.90;;
1475;SDS011;730;48.870;12.542;2022-11-30T01:09:13;20.13;;;14.52;;
1475;SDS011;730;48.870;12.542;2022-11-30T01:11:39;16.23;;;11.93;;
1475;SDS011;730;48.870;12.542;2022-11-30T01:14:05;19.48;;;13.02;;
1475;SDS011;730;48.870;12.542;2022-11-30T01:16:32;17.77;;;13.05;;
1475;SDS011;730;48.870;12.542;2022-11-30T01:18:58;15.57;;;12.18;;
1475;SDS011;730;48.870;12.542;2022-11-30T01:21:26;17.30;;;12.75;;
1475;SDS011;730;48.870;12.542;2022-11-30T01:23:53;18.95;;;12.95;;
1475;SDS011;730;48.870;12.542;2022-11-30T01:26:21;25.38;;;13.93;;
1475;SDS011;730;48.870;12.542;2022-11-30T01:28:48;20.70;;;13.45;;
1475;SDS011;730;48.870;12.542;2022-11-30T01:31:19;22.65;;;14.88;;
1475;SDS011;730;48.870;12.542;2022-11-30T01:33:48;17.38;;;13.57;;
1475;SDS011;730;48.870;12.542;2022-11-30T01:36:20;20.23;;;12.60;;
1475;SDS011;730;48.870;12.542;2022-11-30T01:38:49;20.77;;;14.13;;
1475;SDS011;730;48.870;12.542;2022-11-30T01:41:18;17.88;;;13.70;;
1475;SDS011;730;48.870;12.542;2022-11-30T01:43:56;21.80;;;14.65;;
1475;SDS011;730;48.870;12.542;2022-11-30T01:46:52;23.00;;;15.02;;
1475;SDS011;730;48.870;12.542;2022-11-30T01:51:52;25.52;;;15.27;;
1475;SDS011;730;48.870;12.542;2022-11-30T01:54:25;23.10;;;14.38;;
1475;SDS011;730;48.870;12.542;2022-11-30T01:56:58;20.17;;;14.82;;
1475;SDS011;730;48.870;12.542;2022-11-30T01:59:29;24.40;;;14.43;;
1475;SDS011;730;48.870;12.542;2022-11-30T02:01:55;19.65;;;14.98;;
1475;SDS011;730;48.870;12.542;2022-11-30T02:04:31;20.70;;;14.07;;
1475;SDS011;730;48.870;12.542;2022-11-30T02:07:00;26.58;;;17.13;;
1475;SDS011;730;48.870;12.542;2022-11-30T02:09:28;25.83;;;18.48;;
1475;SDS011;730;48.870;12.542;2022-11-30T02:11:59;24.60;;;15.93;;
1475;SDS011;730;48.870;12.542;2022-11-30T02:14:38;21.52;;;14.38;;
1475;SDS011;730;48.870;12.542;2022-11-30T02:20:11;18.33;;;14.65;;
1475;SDS011;730;48.870;12.542;2022-11-30T02:25:39;17.17;;;12.98;;
1475;SDS011;730;48.870;12.542;2022-11-30T02:28:38;20.30;;;16.92;;
1475;SDS011;730;48.870;12.542;2022-11-30T02:31:19;18.80;;;12.27;;
1475;SDS011;730;48.870;12.542;2022-11-30T02:33:50;19.42;;;14.63;;
1475;SDS011;730;48.870;12.542;2022-11-30T02:36:19;26.83;;;18.33;;
1475;SDS011;730;48.870;12.542;2022-11-30T02:38:46;30.02;;;20.40;;
1475;SDS011;730;48.870;12.542;2022-11-30T02:41:12;31.05;;;21.67;;
1475;SDS011;730;48.870;12.542;2022-11-30T02:43:38;29.95;;;19.92;;
1475;SDS011;730;48.870;12.542;2022-11-30T02:48:43;28.38;;;18.40;;
1475;SDS011;730;48.870;12.542;2022-11-30T02:51:16;26.92;;;18.67;;
1475;SDS011;730;48.870;12.542;2022-11-30T02:53:46;25.52;;;17.95;;
1475;SDS011;730;48.870;12.542;2022-11-30T02:56:14;32.50;;;20.50;;
1475;SDS011;730;48.870;12.542;2022-11-30T02:58:41;31.80;;;19.83;;
1475;SDS011;730;48.870;12.542;2022-11-30T03:01:08;29.02;;;19.13;;
1475;SDS011;730;48.870;12.542;2022-11-30T03:03:34;28.67;;;19.67;;
1475;SDS011;730;48.870;12.542;2022-11-30T03:06:00;30.02;;;18.67;;
1475;SDS011;730;48.870;12.542;2022-11-30T03:08:31;31.70;;;20.58;;
1475;SDS011;730;48.870;12.542;2022-11-30T03:11:00;25.83;;;17.70;;
1475;SDS011;730;48.870;12.542;2022-11-30T03:13:30;31.05;;;21.50;;
1475;SDS011;730;48.870;12.542;2022-11-30T03:15:57;29.65;;;18.80;;
1475;SDS011;730;48.870;12.542;2022-11-30T03:18:23;31.25;;;19.98;;
1475;SDS011;730;48.870;12.542;2022-11-30T03:20:49;30.02;;;18.52;;
1475;SDS011;730;48.870;12.542;2022-11-30T03:23:15;30.02;;;19.42;;
1475;SDS011;730;48.870;12.542;2022-11-30T03:25:41;28.45;;;19.38;;
1475;SDS011;730;48.870;12.542;2022-11-30T03:28:11;33.88;;;21.13;;
1475;SDS011;730;48.870;12.542;2022-11-30T03:30:37;29.33;;;19.58;;
1475;SDS011;730;48.870;12.542;2022-11-30T03:33:03;28.13;;;17.85;;
1475;SDS011;730;48.870;12.542;2022-11-30T03:35:29;28.80;;;19.67;;
1475;SDS011;730;48.870;12.542;2022-11-30T03:37:55;33.72;;;19.70;;
1475;SDS011;730;48.870;12.542;2022-11-30T03:40:25;34.53;;;21.27;;
1475;SDS011;730;48.870;12.542;2022-11-30T03:42:51;29.73;;;19.92;;
1475;SDS011;730;48.870;12.542;2022-11-30T03:45:17;30.95;;;19.48;;
1475;SDS011;730;48.870;12.542;2022-11-30T03:47:43;25.90;;;19.77;;
1475;SDS011;730;48.870;12.542;2022-11-30T03:50:09;30.48;;;20.52;;
1475;SDS011;730;48.870;12.542;2022-11-30T03:52:35;26.85;;;19.75;;
1475;SDS011;730;48.870;12.542;2022-11-30T03:55:01;31.58;;;21.50;;
1475;SDS011;730;48.870;12.542;2022-11-30T03:57:27;31.08;;;19.83;;
1475;SDS011;730;48.870;12.542;2022-11-30T03:59:53;32.53;;;20.77;;
1475;SDS011;730;48.870;12.542;2022-11-30T04:02:19;32.70;;;20.50;;
1475;SDS011;730;48.870;12.542;2022-11-30T04:04:45;28.20;;;19.15;;
1475;SDS011;730;48.870;12.542;2022-11-30T04:07:11;29.98;;;20.45;;
1475;SDS011;730;48.870;12.542;2022-11-30T04:09:40;26.23;;;17.95;;
1475;SDS011;730;48.870;12.542;2022-11-30T04:12:06;26.83;;;18.80;;
1475;SDS011;730;48.870;12.542;2022-11-30T04:14:32;25.77;;;18.73;;
1475;SDS011;730;48.870;12.542;2022-11-30T04:16:58;33.03;;;21.58;;
1475;SDS011;730;48.870;12.542;2022-11-30T04:19:24;29.40;;;20.02;;
1475;SDS011;730;48.870;12.542;2022-11-30T04:21:50;30.23;;;18.92;;
1475;SDS011;730;48.870;12.542;2022-11-30T04:24:16;32.53;;;20.30;;
1475;SDS011;730;48.870;12.542;2022-11-30T04:26:42;27.38;;;20.05;;
1475;SDS011;730;48.870;12.542;2022-11-30T04:29:10;26.85;;;18.70;;
1475;SDS011;730;48.870;12.542;2022-11-30T04:31:36;31.98;;;19.55;;
1475;SDS011;730;48.870;12.542;2022-11-30T04:34:02;29.27;;;19.05;;
1475;SDS011;730;48.870;12.542;2022-11-30T04:36:28;33.33;;;19.00;;
1475;SDS011;730;48.870;12.542;2022-11-30T04:38:55;24.33;;;18.50;;
1475;SDS011;730;48.870;12.542;2022-11-30T04:41:21;26.88;;;19.50;;
1475;SDS011;730;48.870;12.542;2022-11-30T04:43:47;28.23;;;18.70;;
1475;SDS011;730;48.870;12.542;2022-11-30T04:46:13;29.70;;;21.23;;
1475;SDS011;730;48.870;12.542;2022-11-30T04:48:39;25.75;;;17.90;;
1475;SDS011;730;48.870;12.542;2022-11-30T04:51:06;30.73;;;18.45;;
1475;SDS011;730;48.870;12.542;2022-11-30T04:53:33;28.85;;;20.13;;
1475;SDS011;730;48.870;12.542;2022-11-30T04:56:09;27.23;;;18.40;;
1475;SDS011;730;48.870;12.542;2022-11-30T04:58:36;29.88;;;21.42;;
1475;SDS011;730;48.870;12.542;2022-11-30T05:01:03;30.77;;;18.17;;
1475;SDS011;730;48.870;12.542;2022-11-30T05:03:29;27.70;;;19.10;;
1475;SDS011;730;48.870;12.542;2022-11-30T05:05:55;29.00;;;20.15;;
1475;SDS011;730;48.870;12.542;2022-11-30T05:08:21;30.98;;;21.02;;
1475;SDS011;730;48.870;12.542;2022-11-30T05:10:51;25.20;;;18.27;;
1475;SDS011;730;48.870;12.542;2022-11-30T05:13:18;31.52;;;21.15;;
1475;SDS011;730;48.870;12.542;2022-11-30T05:15:46;28.67;;;19.02;;
1475;SDS011;730;48.870;12.542;2022-11-30T05:18:12;30.85;;;20.65;;
1475;SDS011;730;48.870;12.542;2022-11-30T05:20:40;35.35;;;20.70;;
1475;SDS011;730;48.870;12.542;2022-11-30T05:23:06;28.70;;;20.90;;
1475;SDS011;730;48.870;12.542;2022-11-30T05:25:32;30.02;;;22.00;;
1475;SDS011;730;48.870;12.542;2022-11-30T05:27:58;30.83;;;19.98;;
1475;SDS011;730;48.870;12.542;2022-11-30T05:30:24;33.05;;;20.00;;
1475;SDS011;730;48.870;12.542;2022-11-30T05:32:51;29.63;;;20.65;;
1475;SDS011;730;48.870;12.542;2022-11-30T05:35:17;30.67;;;21.42;;
1475;SDS011;730;48.870;12.542;2022-11-30T05:37:43;28.38;;;18.77;;
1475;SDS011;730;48.870;12.542;2022-11-30T05:40:09;28.80;;;18.50;;
1475;SDS011;730;48.870;12.542;2022-11-30T05:42:36;28.90;;;21.95;;
1475;SDS011;730;48.870;12.542;2022-11-30T05:45:02;31.35;;;20.00;;
1475;SDS011;730;48.870;12.542;2022-11-30T05:47:28;30.08;;;18.70;;
1475;SDS011;730;48.870;12.542;2022-11-30T05:49:54;27.58;;;19.90;;
1475;SDS011;730;48.870;12.542;2022-11-30T05:52:21;28.10;;;18.50;;
1475;SDS011;730;48.870;12.542;2022-11-30T05:54:47;25.08;;;18.52;;
1475;SDS011;730;48.870;12.542;2022-11-30T05:57:13;24.95;;;19.42;;
1475;SDS011;730;48.870;12.542;2022-11-30T05:59:39;27.58;;;19.90;;
1475;SDS011;730;48.870;12.542;2022-11-30T06:02:05;29.58;;;19.80;;
1475;SDS011;730;48.870;12.542;2022-11-30T06:04:34;28.80;;;18.38;;
1475;SDS011;730;48.870;12.542;2022-11-30T06:07:02;30.17;;;19.30;;
1475;SDS011;730;48.870;12.542;2022-11-30T06:09:29;32.28;;;20.38;;
1475;SDS011;730;48.870;12.542;2022-11-30T06:11:55;28.08;;;19.40;;
1475;SDS011;730;48.870;12.542;2022-11-30T06:14:21;28.00;;;19.48;;
1475;SDS011;730;48.870;12.542;2022-11-30T06:16:51;28.02;;;20.23;;
1475;SDS011;730;48.870;12.542;2022-11-30T06:19:17;29.10;;;19.83;;
1475;SDS011;730;48.870;12.542;2022-11-30T06:21:43;30.60;;;19.60;;
1475;SDS011;730;48.870;12.542;2022-11-30T06:24:09;29.08;;;19.55;;
1475;SDS011;730;48.870;12.542;2022-11-30T06:26:36;27.83;;;19.67;;
1475;SDS011;730;48.870;12.542;2022-11-30T06:29:02;32.50;;;22.05;;
1475;SDS011;730;48.870;12.542;2022-11-30T06:31:29;30.30;;;19.92;;
1475;SDS011;730;48.870;12.542;2022-11-30T06:33:55;30.25;;;21.80;;
1475;SDS011;730;48.870;12.542;2022-11-30T06:36:22;28.40;;;19.10;;
1475;SDS011;730;48.870;12.542;2022-11-30T06:38:49;39.15;;;22.67;;
1475;SDS011;730;48.870;12.542;2022-11-30T06:41:15;31.98;;;20.33;;
1475;SDS011;730;48.870;12.542;2022-11-30T06:43:42;32.38;;;21.40;;
1475;SDS011;730;48.870;12.542;2022-11-30T06:46:08;28.48;;;18.75;;
1475;SDS011;730;48.870;12.542;2022-11-30T06:48:34;29.23;;;19.77;;
1475;SDS011;730;48.870;12.542;2022-11-30T06:51:03;30.30;;;21.10;;
1475;SDS011;730;48.870;12.542;2022-11-30T06:53:30;26.13;;;19.13;;
1475;SDS011;730;48.870;12.542;2022-11-30T06:55:57;26.67;;;19.33;;
1475;SDS011;730;48.870;12.542;2022-11-30T06:58:23;31.17;;;20.30;;
1475;SDS011;730;48.870;12.542;2022-11-30T07:00:49;28.35;;;18.50;;
1475;SDS011;730;48.870;12.542;2022-11-30T07:03:15;31.15;;;20.58;;
1475;SDS011;730;48.870;12.542;2022-11-30T07:05:42;28.25;;;18.88;;
1475;SDS011;730;48.870;12.542;2022-11-30T07:08:10;33.45;;;20.05;;
1475;SDS011;730;48.870;12.542;2022-11-30T07:10:44;31.02;;;20.58;;
1475;SDS011;730;48.870;12.542;2022-11-30T07:13:12;30.02;;;20.38;;
1475;SDS011;730;48.870;12.542;2022-11-30T07:15:40;28.10;;;18.27;;
1475;SDS011;730;48.870;12.542;2022-11-30T07:18:07;28.23;;;19.45;;
1475;SDS011;730;48.870;12.542;2022-11-30T07:20:35;30.90;;;20.25;;
1475;SDS011;730;48.870;12.542;2022-11-30T07:23:02;29.52;;;18.35;;
1475;SDS011;730;48.870;12.542;2022-11-30T07:25:47;28.15;;;20.30;;
1475;SDS011;730;48.870;12.542;2022-11-30T07:28:34;31.30;;;19.25;;
1475;SDS011;730;48.870;12.542;2022-11-30T07:31:16;31.05;;;20.33;;
1475;SDS011;730;48.870;12.542;2022-11-30T07:33:42;27.23;;;17.48;;
1475;SDS011;730;48.870;12.542;2022-11-30T07:36:08;31.98;;;21.02;;
1475;SDS011;730;48.870;12.542;2022-11-30T07:38:35;27.83;;;19.90;;
1475;SDS011;730;48.870;12.542;2022-11-30T07:41:02;27.90;;;19.70;;
1475;SDS011;730;48.870;12.542;2022-11-30T07:43:29;27.63;;;20.48;;
1475;SDS011;730;48.870;12.542;2022-11-30T07:45:55;32.05;;;20.02;;
1475;SDS011;730;48.870;12.542;2022-11-30T07:48:21;28.05;;;19.08;;
1475;SDS011;730;48.870;12.542;2022-11-30T07:50:47;29.60;;;19.90;;
1475;SDS011;730;48.870;12.542;2022-11-30T07:53:14;28.70;;;18.75;;
1475;SDS011;730;48.870;12.542;2022-11-30T07:55:41;27.80;;;20.02;;
1475;SDS011;730;48.870;12.542;2022-11-30T07:58:07;27.60;;;18.95;;
1475;SDS011;730;48.870;12.542;2022-11-30T08:00:37;29.40;;;18.67;;
1475;SDS011;730;48.870;12.542;2022-11-30T08:03:04;32.22;;;19.75;;
1475;SDS011;730;48.870;12.542;2022-11-30T08:05:30;23.98;;;17.42;;
1475;SDS011;730;48.870;12.542;2022-11-30T08:07:56;26.08;;;18.98;;
1475;SDS011;730;48.870;12.542;2022-11-30T08:10:22;24.98;;;18.23;;
1475;SDS011;730;48.870;12.542;2022-11-30T08:12:56;30.10;;;18.10;;
1475;SDS011;730;48.870;12.542;2022-11-30T08:15:22;27.55;;;18.52;;
1475;SDS011;730;48.870;12.542;2022-11-30T08:17:48;30.15;;;19.35;;
1475;SDS011;730;48.870;12.542;2022-11-30T08:20:18;28.20;;;18.98;;
1475;SDS011;730;48.870;12.542;2022-11-30T08:22:45;29.27;;;19.20;;
1475;SDS011;730;48.870;12.542;2022-11-30T08:25:11;32.40;;;20.33;;
1475;SDS011;730;48.870;12.542;2022-11-30T08:27:37;29.25;;;19.35;;
1475;SDS011;730;48.870;12.542;2022-11-30T08:30:03;29.50;;;20.10;;
1475;SDS011;730;48.870;12.542;2022-11-30T08:32:30;27.67;;;19.20;;
1475;SDS011;730;48.870;12.542;2022-11-30T08:34:57;27.00;;;18.73;;
1475;SDS011;730;48.870;12.542;2022-11-30T08:37:23;27.50;;;18.73;;
1475;SDS011;730;48.870;12.542;2022-11-30T08:39:49;29.35;;;19.58;;
1475;SDS011;730;48.870;12.542;2022-11-30T08:42:15;27.13;;;18.33;;
1475;SDS011;730;48.870;12.542;2022-11-30T08:44:41;28.08;;;19.13;;
1475;SDS011;730;48.870;12.542;2022-11-30T08:47:07;25.15;;;17.30;;
1475;SDS011;730;48.870;12.542;2022-11-30T08:49:34;25.80;;;17.80;;
1475;SDS011;730;48.870;12.542;2022-11-30T08:52:00;28.52;;;20.58;;
1475;SDS011;730;48.870;12.542;2022-11-30T08:54:27;29.10;;;19.02;;
1475;SDS011;730;48.870;12.542;2022-11-30T08:56:53;24.48;;;17.60;;
1475;SDS011;730;48.870;12.542;2022-11-30T08:59:19;27.75;;;18.27;;
1475;SDS011;730;48.870;12.542;2022-11-30T09:01:45;26.15;;;18.48;;
1475;SDS011;730;48.870;12.542;2022-11-30T09:04:11;27.38;;;16.70;;
1475;SDS011;730;48.870;12.542;2022-11-30T09:06:37;22.05;;;17.45;;
1475;SDS011;730;48.870;12.542;2022-11-30T09:09:03;22.83;;;16.27;;
1475;SDS011;730;48.870;12.542;2022-11-30T09:11:30;25.27;;;17.05;;
1475;SDS011;730;48.870;12.542;2022-11-30T09:13:59;24.80;;;17.27;;
1475;SDS011;730;48.870;12.542;2022-11-30T09:16:26;26.33;;;17.60;;
1475;SDS011;730;48.870;12.542;2022-11-30T09:18:53;24.02;;;16.17;;
1475;SDS011;730;48.870;12.542;2022-11-30T09:21:20;25.55;;;16.20;;
1475;SDS011;730;48.870;12.542;2022-11-30T09:23:48;23.02;;;16.55;;
1475;SDS011;730;48.870;12.542;2022-11-30T09:26:15;23.05;;;17.13;;
1475;SDS011;730;48.870;12.542;2022-11-30T09:28:44;26.30;;;18.70;;
1475;SDS011;730;48.870;12.542;2022-11-30T09:31:15;27.80;;;17.95;;
1475;SDS011;730;48.870;12.542;2022-11-30T09:33:42;26.23;;;17.80;;
1475;SDS011;730;48.870;12.542;2022-11-30T09:36:10;26.98;;;17.33;;
1475;SDS011;730;48.870;12.542;2022-11-30T09:38:38;21.30;;;16.15;;
1475;SDS011;730;48.870;12.542;2022-11-30T09:43:50;25.02;;;18.33;;
1475;SDS011;730;48.870;12.542;2022-11-30T09:46:35;22.45;;;16.70;;
1475;SDS011;730;48.870;12.542;2022-11-30T09:49:09;24.35;;;18.02;;
1475;SDS011;730;48.870;12.542;2022-11-30T09:52:07;25.20;;;16.67;;
1475;SDS011;730;48.870;12.542;2022-11-30T09:54:41;24.55;;;16.42;;
1475;SDS011;730;48.870;12.542;2022-11-30T09:57:20;23.23;;;16.67;;
1475;SDS011;730;48.870;12.542;2022-11-30T09:59:57;22.17;;;17.13;;
1475;SDS011;730;48.870;12.542;2022-11-30T10:02:29;26.08;;;16.35;;
1475;SDS011;730;48.870;12.542;2022-11-30T10:04:56;26.73;;;18.38;;
1475;SDS011;730;48.870;12.542;2022-11-30T10:07:35;23.38;;;17.45;;
1475;SDS011;730;48.870;12.542;2022-11-30T10:19:27;22.00;;;16.40;;
1475;SDS011;730;48.870;12.542;2022-11-30T10:21:50;25.60;;;18.73;;
1475;SDS011;730;48.870;12.542;2022-11-30T10:26:57;21.63;;;16.80;;
1475;SDS011;730;48.870;12.542;2022-11-30T10:29:35;20.67;;;16.63;;
1475;SDS011;730;48.870;12.542;2022-11-30T10:32:20;24.10;;;17.00;;
1475;SDS011;730;48.870;12.542;2022-11-30T10:34:54;24.67;;;18.35;;
1475;SDS011;730;48.870;12.542;2022-11-30T10:37:31;22.83;;;16.05;;
1475;SDS011;730;48.870;12.542;2022-11-30T10:40:02;24.50;;;17.40;;
1475;SDS011;730;48.870;12.542;2022-11-30T10:42:58;23.65;;;16.77;;
1475;SDS011;730;48.870;12.542;2022-11-30T10:45:32;26.35;;;17.58;;
1475;SDS011;730;48.870;12.542;2022-11-30T10:48:06;23.92;;;18.60;;
1475;SDS011;730;48.870;12.542;2022-11-30T10:50:42;27.67;;;19.63;;
1475;SDS011;730;48.870;12.542;2022-11-30T10:53:09;22.17;;;17.55;;
1475;SDS011;730;48.870;12.542;2022-11-30T10:55:40;21.70;;;17.67;;
1475;SDS011;730;48.870;12.542;2022-11-30T11:00:54;21.88;;;18.45;;
1475;SDS011;730;48.870;12.542;2022-11-30T11:03:28;27.85;;;19.02;;
1475;SDS011;730;48.870;12.542;2022-11-30T11:06:12;27.52;;;18.35;;
1475;SDS011;730;48.870;12.542;2022-11-30T11:08:45;23.70;;;19.25;;
1475;SDS011;730;48.870;12.542;2022-11-30T11:14:14;25.23;;;18.90;;
1475;SDS011;730;48.870;12.542;2022-11-30T11:16:54;23.25;;;17.15;;
1475;SDS011;730;48.870;12.542;2022-11-30T11:19:47;25.15;;;18.20;;
1475;SDS011;730;48.870;12.542;2022-11-30T11:22:19;20.80;;;16.38;;
1475;SDS011;730;48.870;12.542;2022-11-30T11:24:47;21.58;;;15.80;;
1475;SDS011;730;48.870;12.542;2022-11-30T11:27:27;28.13;;;19.55;;
1475;SDS011;730;48.870;12.542;2022-11-30T11:33:25;23.67;;;17.08;;
1475;SDS011;730;48.870;12.542;2022-11-30T11:38:40;20.98;;;17.10;;
1475;SDS011;730;48.870;12.542;2022-11-30T11:41:25;23.08;;;18.30;;
1475;SDS011;730;48.870;12.542;2022-11-30T11:46:50;27.92;;;19.17;;
1475;SDS011;730;48.870;12.542;2022-11-30T11:52:12;25.02;;;20.33;;
1475;SDS011;730;48.870;12.542;2022-11-30T11:57:35;24.25;;;16.90;;
1475;SDS011;730;48.870;12.542;2022-11-30T12:00:14;23.80;;;17.52;;
1475;SDS011;730;48.870;12.542;2022-11-30T12:02:44;23.73;;;17.42;;
1475;SDS011;730;48.870;12.542;2022-11-30T12:05:17;24.40;;;20.27;;
1475;SDS011;730;48.870;12.542;2022-11-30T12:10:38;24.83;;;19.02;;
1475;SDS011;730;48.870;12.542;2022-11-30T12:13:15;25.45;;;18.95;;
1475;SDS011;730;48.870;12.542;2022-11-30T12:21:14;27.27;;;17.50;;
1475;SDS011;730;48.870;12.542;2022-11-30T12:26:36;24.70;;;18.88;;
1475;SDS011;730;48.870;12.542;2022-11-30T12:29:22;22.35;;;17.67;;
1475;SDS011;730;48.870;12.542;2022-11-30T12:34:29;23.15;;;18.30;;
1475;SDS011;730;48.870;12.542;2022-11-30T12:37:17;23.13;;;18.63;;
1475;SDS011;730;48.870;12.542;2022-11-30T12:45:16;24.77;;;18.77;;
1475;SDS011;730;48.870;12.542;2022-11-30T12:59:00;24.30;;;17.38;;
1475;SDS011;730;48.870;12.542;2022-11-30T13:06:59;23.60;;;14.98;;
1475;SDS011;730;48.870;12.542;2022-11-30T13:09:41;17.77;;;14.35;;
1475;SDS011;730;48.870;12.542;2022-11-30T13:12:24;18.65;;;14.57;;
1475;SDS011;730;48.870;12.542;2022-11-30T13:15:01;21.25;;;15.20;;
1475;SDS011;730;48.870;12.542;2022-11-30T13:17:30;18.85;;;14.10;;
1475;SDS011;730;48.870;12.542;2022-11-30T13:20:07;17.98;;;12.93;;
1475;SDS011;730;48.870;12.542;2022-11-30T13:22:49;20.05;;;14.10;;
1475;SDS011;730;48.870;12.542;2022-11-30T13:25:31;26.33;;;18.08;;
1475;SDS011;730;48.870;12.542;2022-11-30T13:31:08;18.23;;;13.43;;
1475;SDS011;730;48.870;12.542;2022-11-30T13:36:30;17.98;;;13.55;;
1475;SDS011;730;48.870;12.542;2022-11-30T13:41:39;17.77;;;13.25;;
1475;SDS011;730;48.870;12.542;2022-11-30T13:44:21;19.80;;;12.40;;
1475;SDS011;730;48.870;12.542;2022-11-30T13:46:49;17.27;;;12.75;;
1475;SDS011;730;48.870;12.542;2022-11-30T13:49:23;18.20;;;13.55;;
1475;SDS011;730;48.870;12.542;2022-11-30T13:51:53;17.50;;;13.27;;
1475;SDS011;730;48.870;12.542;2022-11-30T13:59:52;15.93;;;12.52;;
1475;SDS011;730;48.870;12.542;2022-11-30T14:05:33;19.30;;;11.32;;
1475;SDS011;730;48.870;12.542;2022-11-30T14:15:28;19.58;;;13.35;;
1475;SDS011;730;48.870;12.542;2022-11-30T14:23:09;18.67;;;13.75;;
1475;SDS011;730;48.870;12.542;2022-11-30T14:25:40;16.77;;;12.23;;
1475;SDS011;730;48.870;12.542;2022-11-30T14:28:14;20.17;;;12.95;;
1475;SDS011;730;48.870;12.542;2022-11-30T14:30:43;18.25;;;13.55;;
1475;SDS011;730;48.870;12.542;2022-11-30T14:33:12;17.13;;;12.10;;
1475;SDS011;730;48.870;12.542;2022-11-30T14:36:11;18.73;;;12.40;;
1475;SDS011;730;48.870;12.542;2022-11-30T14:38:39;14.38;;;11.95;;
1475;SDS011;730;48.870;12.542;2022-11-30T14:41:19;16.30;;;12.07;;
1475;SDS011;730;48.870;12.542;2022-11-30T14:43:59;18.92;;;13.27;;
1475;SDS011;730;48.870;12.542;2022-11-30T14:46:27;17.38;;;12.70;;
1475;SDS011;730;48.870;12.542;2022-11-30T14:51:45;19.52;;;13.65;;
1475;SDS011;730;48.870;12.542;2022-11-30T14:57:06;16.00;;;11.80;;
1475;SDS011;730;48.870;12.542;2022-11-30T14:59:53;16.88;;;13.75;;
1475;SDS011;730;48.870;12.542;2022-11-30T15:05:17;17.45;;;12.93;;
1475;SDS011;730;48.870;12.542;2022-11-30T15:07:51;15.60;;;11.75;;
1475;SDS011;730;48.870;12.542;2022-11-30T15:10:23;16.42;;;12.70;;
1475;SDS011;730;48.870;12.542;2022-11-30T15:12:53;17.27;;;12.82;;
1475;SDS011;730;48.870;12.542;2022-11-30T15:17:54;14.95;;;12.43;;
1475;SDS011;730;48.870;12.542;2022-11-30T15:20:38;17.30;;;12.40;;
1475;SDS011;730;48.870;12.542;2022-11-30T15:23:11;18.35;;;13.65;;
1475;SDS011;730;48.870;12.542;2022-11-30T15:25:39;17.15;;;13.93;;
1475;SDS011;730;48.870;12.542;2022-11-30T15:28:32;16.00;;;13.18;;
1475;SDS011;730;48.870;12.542;2022-11-30T15:31:04;17.65;;;13.30;;
1475;SDS011;730;48.870;12.542;2022-11-30T15:33:36;21.02;;;14.75;;
1475;SDS011;730;48.870;12.542;2022-11-30T15:36:07;20.05;;;12.98;;
1475;SDS011;730;48.870;12.542;2022-11-30T15:38:34;20.33;;;16.00;;
1475;SDS011;730;48.870;12.542;2022-11-30T15:41:06;23.15;;;14.85;;
1475;SDS011;730;48.870;12.542;2022-11-30T15:43:48;20.40;;;15.48;;
1475;SDS011;730;48.870;12.542;2022-11-30T15:46:26;19.35;;;14.65;;
1475;SDS011;730;48.870;12.542;2022-11-30T15:49:22;21.67;;;17.38;;
1475;SDS011;730;48.870;12.542;2022-11-30T15:52:14;20.83;;;14.93;;
1475;SDS011;730;48.870;12.542;2022-11-30T15:54:42;21.02;;;13.75;;
1475;SDS011;730;48.870;12.542;2022-11-30T15:57:21;15.68;;;11.90;;
1475;SDS011;730;48.870;12.542;2022-11-30T16:02:45;17.05;;;13.60;;
1475;SDS011;730;48.870;12.542;2022-11-30T16:07:51;19.30;;;14.27;;
1475;SDS011;730;48.870;12.542;2022-11-30T16:10:25;14.63;;;12.27;;
1475;SDS011;730;48.870;12.542;2022-11-30T16:12:55;18.27;;;13.60;;
1475;SDS011;730;48.870;12.542;2022-11-30T16:15:23;16.85;;;12.60;;
1475;SDS011;730;48.870;12.542;2022-11-30T16:18:37;20.42;;;16.08;;
1475;SDS011;730;48.870;12.542;2022-11-30T16:20:43;19.77;;;13.20;;
1475;SDS011;730;48.870;12.542;2022-11-30T16:23:11;19.42;;;14.80;;
1475;SDS011;730;48.870;12.542;2022-11-30T16:25:40;13.98;;;12.43;;
1475;SDS011;730;48.870;12.542;2022-11-30T16:28:08;17.33;;;13.48;;
1475;SDS011;730;48.870;12.542;2022-11-30T16:30:35;20.42;;;14.00;;
1475;SDS011;730;48.870;12.542;2022-11-30T16:33:02;19.70;;;14.15;;
1475;SDS011;730;48.870;12.542;2022-11-30T16:35:36;21.77;;;16.05;;
1475;SDS011;730;48.870;12.542;2022-11-30T16:38:05;21.23;;;15.07;;
1475;SDS011;730;48.870;12.542;2022-11-30T16:40:32;19.05;;;14.05;;
1475;SDS011;730;48.870;12.542;2022-11-30T16:43:03;19.08;;;14.32;;
1475;SDS011;730;48.870;12.542;2022-11-30T16:45:36;19.90;;;14.45;;
1475;SDS011;730;48.870;12.542;2022-11-30T16:48:03;18.35;;;14.30;;
1475;SDS011;730;48.870;12.542;2022-11-30T16:50:30;21.90;;;14.82;;
1475;SDS011;730;48.870;12.542;2022-11-30T16:52:58;18.70;;;14.82;;
1475;SDS011;730;48.870;12.542;2022-11-30T16:55:28;19.80;;;13.80;;
1475;SDS011;730;48.870;12.542;2022-11-30T16:57:56;19.25;;;12.95;;
1475;SDS011;730;48.870;12.542;2022-11-30T17:00:23;21.25;;;14.80;;
1475;SDS011;730;48.870;12.542;2022-11-30T17:05:27;19.65;;;14.90;;
1475;SDS011;730;48.870;12.542;2022-11-30T17:07:53;18.55;;;14.85;;
1475;SDS011;730;48.870;12.542;2022-11-30T17:10:20;21.60;;;14.25;;
1475;SDS011;730;48.870;12.542;2022-11-30T17:12:46;23.85;;;16.55;;
1475;SDS011;730;48.870;12.542;2022-11-30T17:15:14;20.45;;;14.88;;